sensor_id;sensor_type;location;lat;lon;timestamp;P1;durP1;ratioP1;P2;durP2;ratioP2
15712;SDS011;7957;51.608;6.916;2022-11-15T00:00:46;11.33;;;10.23;;
15712;SDS011;7957;51.608;6.916;2022-11-15T00:03:16;11.30;;;10.20;;
15712;SDS011;7957;51.608;6.916;2022-11-15T00:05:44;13.03;;;11.10;;
15712;SDS011;7957;51.608;6.916;2022-11-15T00:08:13;11.67;;;10.57;;
15712;SDS011;7957;51.608;6.916;2022-11-15T00:10:40;11.73;;;10.63;;
15712;SDS011;7957;51.608;6.916;2022-11-15T00:13:10;11.90;;;10.70;;
15712;SDS011;7957;51.608;6.916;2022-11-15T00:15:39;12.60;;;11.40;;
15712;SDS011;7957;51.608;6.916;2022-11-15T00:18:11;11.17;;;10.13;;
15712;SDS011;7957;51.608;6.916;2022-11-15T00:20:39;11.90;;;10.70;;
15712;SDS011;7957;51.608;6.916;2022-11-15T00:23:07;11.43;;;10.30;;
15712;SDS011;7957;51.608;6.916;2022-11-15T00:25:34;11.47;;;10.47;;
15712;SDS011;7957;51.608;6.916;2022-11-15T00:28:01;11.77;;;10.57;;
15712;SDS011;7957;51.608;6.916;2022-11-15T00:30:30;11.07;;;10.07;;
15712;SDS011;7957;51.608;6.916;2022-11-15T00:33:01;11.90;;;10.73;;
15712;SDS011;7957;51.608;6.916;2022-11-15T00:35:28;11.27;;;10.17;;
15712;SDS011;7957;51.608;6.916;2022-11-15T00:37:57;11.57;;;10.47;;
15712;SDS011;7957;51.608;6.916;2022-11-15T00:40:24;11.73;;;10.63;;
15712;SDS011;7957;51.608;6.916;2022-11-15T00:42:51;11.10;;;10.00;;
15712;SDS011;7957;51.608;6.916;2022-11-15T00:45:18;11.10;;;10.07;;
15712;SDS011;7957;51.608;6.916;2022-11-15T00:47:46;11.13;;;10.03;;
15712;SDS011;7957;51.608;6.916;2022-11-15T00:50:13;11.57;;;10.37;;
15712;SDS011;7957;51.608;6.916;2022-11-15T00:52:42;12.23;;;11.07;;
15712;SDS011;7957;51.608;6.916;2022-11-15T00:55:09;12.20;;;10.97;;
15712;SDS011;7957;51.608;6.916;2022-11-15T00:57:40;13.80;;;11.50;;
15712;SDS011;7957;51.608;6.916;2022-11-15T01:00:07;12.20;;;11.00;;
15712;SDS011;7957;51.608;6.916;2022-11-15T01:02:35;11.47;;;10.40;;
15712;SDS011;7957;51.608;6.916;2022-11-15T01:05:03;12.47;;;11.27;;
15712;SDS011;7957;51.608;6.916;2022-11-15T01:07:30;12.33;;;11.13;;
15712;SDS011;7957;51.608;6.916;2022-11-15T01:09:57;11.63;;;10.53;;
15712;SDS011;7957;51.608;6.916;2022-11-15T01:12:26;12.83;;;11.53;;
15712;SDS011;7957;51.608;6.916;2022-11-15T01:14:53;12.03;;;10.77;;
15712;SDS011;7957;51.608;6.916;2022-11-15T01:17:19;11.70;;;10.60;;
15712;SDS011;7957;51.608;6.916;2022-11-15T01:19:46;11.20;;;10.10;;
15712;SDS011;7957;51.608;6.916;2022-11-15T01:22:15;11.17;;;10.07;;
15712;SDS011;7957;51.608;6.916;2022-11-15T01:24:42;11.20;;;10.07;;
15712;SDS011;7957;51.608;6.916;2022-11-15T01:27:09;10.60;;;9.53;;
15712;SDS011;7957;51.608;6.916;2022-11-15T01:29:37;10.73;;;9.73;;
15712;SDS011;7957;51.608;6.916;2022-11-15T01:32:04;10.53;;;9.53;;
15712;SDS011;7957;51.608;6.916;2022-11-15T01:41:17;11.00;;;9.90;;
15712;SDS011;7957;51.608;6.916;2022-11-15T01:43:46;11.60;;;9.63;;
15712;SDS011;7957;51.608;6.916;2022-11-15T01:46:19;10.97;;;9.87;;
15712;SDS011;7957;51.608;6.916;2022-11-15T01:48:51;12.77;;;9.77;;
15712;SDS011;7957;51.608;6.916;2022-11-15T01:51:20;10.30;;;9.30;;
15712;SDS011;7957;51.608;6.916;2022-11-15T01:53:50;11.27;;;10.17;;
15712;SDS011;7957;51.608;6.916;2022-11-15T01:56:22;10.70;;;9.60;;
15712;SDS011;7957;51.608;6.916;2022-11-15T01:58:51;11.20;;;9.73;;
15712;SDS011;7957;51.608;6.916;2022-11-15T02:01:21;10.30;;;9.20;;
15712;SDS011;7957;51.608;6.916;2022-11-15T02:03:52;12.17;;;9.77;;
15712;SDS011;7957;51.608;6.916;2022-11-15T02:06:23;10.37;;;9.37;;
15712;SDS011;7957;51.608;6.916;2022-11-15T02:08:50;11.40;;;9.40;;
15712;SDS011;7957;51.608;6.916;2022-11-15T02:11:18;10.93;;;9.83;;
15712;SDS011;7957;51.608;6.916;2022-11-15T02:13:46;10.07;;;8.53;;
15712;SDS011;7957;51.608;6.916;2022-11-15T02:16:15;10.87;;;9.60;;
15712;SDS011;7957;51.608;6.916;2022-11-15T02:18:53;9.60;;;8.70;;
15712;SDS011;7957;51.608;6.916;2022-11-15T02:21:27;10.67;;;9.50;;
15712;SDS011;7957;51.608;6.916;2022-11-15T02:24:11;9.43;;;8.63;;
15712;SDS011;7957;51.608;6.916;2022-11-15T02:27:24;10.30;;;9.30;;
15712;SDS011;7957;51.608;6.916;2022-11-15T02:30:22;11.20;;;9.37;;
15712;SDS011;7957;51.608;6.916;2022-11-15T02:32:50;10.50;;;9.20;;
15712;SDS011;7957;51.608;6.916;2022-11-15T02:35:23;10.33;;;9.33;;
15712;SDS011;7957;51.608;6.916;2022-11-15T02:37:56;10.17;;;8.53;;
15712;SDS011;7957;51.608;6.916;2022-11-15T02:40:32;10.47;;;9.37;;
15712;SDS011;7957;51.608;6.916;2022-11-15T02:43:07;11.10;;;9.30;;
15712;SDS011;7957;51.608;6.916;2022-11-15T02:45:56;10.47;;;9.37;;
15712;SDS011;7957;51.608;6.916;2022-11-15T02:48:28;9.80;;;8.80;;
15712;SDS011;7957;51.608;6.916;2022-11-15T02:50:57;10.07;;;8.73;;
15712;SDS011;7957;51.608;6.916;2022-11-15T02:53:25;10.33;;;9.30;;
15712;SDS011;7957;51.608;6.916;2022-11-15T02:55:54;10.63;;;8.43;;
15712;SDS011;7957;51.608;6.916;2022-11-15T02:58:37;9.83;;;8.83;;
15712;SDS011;7957;51.608;6.916;2022-11-15T03:01:26;10.00;;;9.00;;
15712;SDS011;7957;51.608;6.916;2022-11-15T03:04:07;11.90;;;8.60;;
15712;SDS011;7957;51.608;6.916;2022-11-15T03:06:42;9.90;;;8.90;;
15712;SDS011;7957;51.608;6.916;2022-11-15T03:09:17;10.77;;;8.47;;
15712;SDS011;7957;51.608;6.916;2022-11-15T03:11:55;9.50;;;8.60;;
15712;SDS011;7957;51.608;6.916;2022-11-15T03:14:34;10.80;;;8.77;;
15712;SDS011;7957;51.608;6.916;2022-11-15T03:17:06;8.93;;;8.13;;
15712;SDS011;7957;51.608;6.916;2022-11-15T03:19:43;9.60;;;8.17;;
15712;SDS011;7957;51.608;6.916;2022-11-15T03:22:12;9.90;;;8.90;;
15712;SDS011;7957;51.608;6.916;2022-11-15T03:24:43;12.40;;;8.20;;
15712;SDS011;7957;51.608;6.916;2022-11-15T03:27:12;10.50;;;8.30;;
15712;SDS011;7957;51.608;6.916;2022-11-15T03:29:41;10.37;;;7.83;;
15712;SDS011;7957;51.608;6.916;2022-11-15T03:32:14;9.17;;;8.27;;
15712;SDS011;7957;51.608;6.916;2022-11-15T03:34:46;9.03;;;8.13;;
15712;SDS011;7957;51.608;6.916;2022-11-15T03:37:16;10.47;;;8.60;;
15712;SDS011;7957;51.608;6.916;2022-11-15T03:39:45;8.87;;;7.93;;
15712;SDS011;7957;51.608;6.916;2022-11-15T03:42:15;11.87;;;8.43;;
15712;SDS011;7957;51.608;6.916;2022-11-15T03:44:49;10.40;;;8.03;;
15712;SDS011;7957;51.608;6.916;2022-11-15T03:47:23;9.60;;;8.60;;
15712;SDS011;7957;51.608;6.916;2022-11-15T03:49:56;9.03;;;8.10;;
15712;SDS011;7957;51.608;6.916;2022-11-15T03:52:26;10.13;;;8.83;;
15712;SDS011;7957;51.608;6.916;2022-11-15T03:54:57;11.03;;;8.47;;
15712;SDS011;7957;51.608;6.916;2022-11-15T03:57:27;8.50;;;7.73;;
15712;SDS011;7957;51.608;6.916;2022-11-15T03:59:54;10.63;;;8.33;;
15712;SDS011;7957;51.608;6.916;2022-11-15T04:02:23;11.60;;;8.83;;
15712;SDS011;7957;51.608;6.916;2022-11-15T04:04:49;9.13;;;8.23;;
15712;SDS011;7957;51.608;6.916;2022-11-15T04:07:16;10.03;;;8.50;;
15712;SDS011;7957;51.608;6.916;2022-11-15T04:09:43;8.67;;;7.93;;
15712;SDS011;7957;51.608;6.916;2022-11-15T04:12:28;9.67;;;8.57;;
15712;SDS011;7957;51.608;6.916;2022-11-15T04:14:58;9.23;;;8.33;;
15712;SDS011;7957;51.608;6.916;2022-11-15T04:17:38;9.80;;;8.80;;
15712;SDS011;7957;51.608;6.916;2022-11-15T04:20:07;9.30;;;8.20;;
15712;SDS011;7957;51.608;6.916;2022-11-15T04:22:54;8.90;;;8.00;;
15712;SDS011;7957;51.608;6.916;2022-11-15T04:25:39;10.00;;;8.50;;
15712;SDS011;7957;51.608;6.916;2022-11-15T04:28:06;8.60;;;7.80;;
15712;SDS011;7957;51.608;6.916;2022-11-15T04:30:33;10.00;;;8.43;;
15712;SDS011;7957;51.608;6.916;2022-11-15T04:33:02;9.17;;;8.27;;
15712;SDS011;7957;51.608;6.916;2022-11-15T04:35:29;8.67;;;7.77;;
15712;SDS011;7957;51.608;6.916;2022-11-15T04:37:56;8.83;;;7.53;;
15712;SDS011;7957;51.608;6.916;2022-11-15T04:40:23;8.63;;;7.83;;
15712;SDS011;7957;51.608;6.916;2022-11-15T04:42:50;9.30;;;7.93;;
15712;SDS011;7957;51.608;6.916;2022-11-15T04:45:17;8.20;;;7.40;;
15712;SDS011;7957;51.608;6.916;2022-11-15T04:47:44;9.30;;;7.27;;
15712;SDS011;7957;51.608;6.916;2022-11-15T04:50:12;9.93;;;7.63;;
15712;SDS011;7957;51.608;6.916;2022-11-15T04:52:40;7.70;;;7.00;;
15712;SDS011;7957;51.608;6.916;2022-11-15T04:55:08;8.13;;;7.33;;
15712;SDS011;7957;51.608;6.916;2022-11-15T04:57:35;8.40;;;7.60;;
15712;SDS011;7957;51.608;6.916;2022-11-15T05:00:03;8.33;;;7.53;;
15712;SDS011;7957;51.608;6.916;2022-11-15T05:02:32;8.00;;;7.23;;
15712;SDS011;7957;51.608;6.916;2022-11-15T05:05:14;8.27;;;7.47;;
15712;SDS011;7957;51.608;6.916;2022-11-15T05:07:41;7.93;;;7.20;;
15712;SDS011;7957;51.608;6.916;2022-11-15T05:10:08;8.60;;;7.80;;
15712;SDS011;7957;51.608;6.916;2022-11-15T05:12:35;8.37;;;7.57;;
15712;SDS011;7957;51.608;6.916;2022-11-15T05:15:03;8.27;;;7.20;;
15712;SDS011;7957;51.608;6.916;2022-11-15T05:17:30;9.07;;;7.60;;
15712;SDS011;7957;51.608;6.916;2022-11-15T05:19:57;8.13;;;7.37;;
15712;SDS011;7957;51.608;6.916;2022-11-15T05:22:26;7.60;;;6.90;;
15712;SDS011;7957;51.608;6.916;2022-11-15T05:24:54;9.07;;;8.07;;
15712;SDS011;7957;51.608;6.916;2022-11-15T05:27:21;8.03;;;7.23;;
15712;SDS011;7957;51.608;6.916;2022-11-15T05:29:49;8.53;;;7.63;;
15712;SDS011;7957;51.608;6.916;2022-11-15T05:32:15;8.40;;;7.60;;
15712;SDS011;7957;51.608;6.916;2022-11-15T05:34:44;8.40;;;7.60;;
15712;SDS011;7957;51.608;6.916;2022-11-15T05:37:11;8.30;;;7.50;;
15712;SDS011;7957;51.608;6.916;2022-11-15T05:39:41;8.30;;;7.43;;
15712;SDS011;7957;51.608;6.916;2022-11-15T05:42:09;8.53;;;7.63;;
15712;SDS011;7957;51.608;6.916;2022-11-15T05:44:37;8.20;;;7.37;;
15712;SDS011;7957;51.608;6.916;2022-11-15T05:47:08;9.93;;;7.37;;
15712;SDS011;7957;51.608;6.916;2022-11-15T05:49:38;7.33;;;6.63;;
15712;SDS011;7957;51.608;6.916;2022-11-15T05:52:07;6.90;;;6.30;;
15712;SDS011;7957;51.608;6.916;2022-11-15T05:54:38;7.60;;;6.80;;
15712;SDS011;7957;51.608;6.916;2022-11-15T05:57:07;7.37;;;6.67;;
15712;SDS011;7957;51.608;6.916;2022-11-15T05:59:35;9.17;;;6.87;;
15712;SDS011;7957;51.608;6.916;2022-11-15T06:02:02;7.50;;;6.73;;
15712;SDS011;7957;51.608;6.916;2022-11-15T06:04:29;7.10;;;6.40;;
15712;SDS011;7957;51.608;6.916;2022-11-15T06:06:56;7.80;;;7.00;;
15712;SDS011;7957;51.608;6.916;2022-11-15T06:09:24;7.10;;;6.50;;
15712;SDS011;7957;51.608;6.916;2022-11-15T06:11:51;8.67;;;7.10;;
15712;SDS011;7957;51.608;6.916;2022-11-15T06:14:20;7.60;;;6.90;;
15712;SDS011;7957;51.608;6.916;2022-11-15T06:16:47;7.17;;;6.40;;
15712;SDS011;7957;51.608;6.916;2022-11-15T06:19:14;6.63;;;6.03;;
15712;SDS011;7957;51.608;6.916;2022-11-15T06:21:40;6.80;;;6.20;;
15712;SDS011;7957;51.608;6.916;2022-11-15T06:24:07;8.90;;;6.50;;
15712;SDS011;7957;51.608;6.916;2022-11-15T06:26:34;7.47;;;6.77;;
15712;SDS011;7957;51.608;6.916;2022-11-15T06:29:02;8.13;;;7.43;;
15712;SDS011;7957;51.608;6.916;2022-11-15T06:31:30;8.23;;;7.30;;
15712;SDS011;7957;51.608;6.916;2022-11-15T06:33:57;8.27;;;7.47;;
15712;SDS011;7957;51.608;6.916;2022-11-15T06:36:25;8.23;;;7.43;;
15712;SDS011;7957;51.608;6.916;2022-11-15T06:38:52;7.97;;;7.27;;
15712;SDS011;7957;51.608;6.916;2022-11-15T06:41:19;8.10;;;7.30;;
15712;SDS011;7957;51.608;6.916;2022-11-15T06:43:47;7.57;;;6.90;;
15712;SDS011;7957;51.608;6.916;2022-11-15T06:46:14;7.77;;;7.03;;
15712;SDS011;7957;51.608;6.916;2022-11-15T06:48:42;8.33;;;7.53;;
15712;SDS011;7957;51.608;6.916;2022-11-15T06:51:09;8.70;;;7.90;;
15712;SDS011;7957;51.608;6.916;2022-11-15T06:53:36;9.43;;;7.20;;
15712;SDS011;7957;51.608;6.916;2022-11-15T06:56:22;8.13;;;7.37;;
15712;SDS011;7957;51.608;6.916;2022-11-15T06:58:49;8.17;;;7.43;;
15712;SDS011;7957;51.608;6.916;2022-11-15T07:01:16;7.87;;;7.10;;
15712;SDS011;7957;51.608;6.916;2022-11-15T07:03:45;8.03;;;7.33;;
15712;SDS011;7957;51.608;6.916;2022-11-15T07:06:11;7.57;;;6.87;;
15712;SDS011;7957;51.608;6.916;2022-11-15T07:08:38;8.03;;;7.10;;
15712;SDS011;7957;51.608;6.916;2022-11-15T07:11:07;8.47;;;7.77;;
15712;SDS011;7957;51.608;6.916;2022-11-15T07:13:35;8.23;;;7.43;;
15712;SDS011;7957;51.608;6.916;2022-11-15T07:16:03;8.40;;;7.33;;
15712;SDS011;7957;51.608;6.916;2022-11-15T07:18:33;7.70;;;7.00;;
15712;SDS011;7957;51.608;6.916;2022-11-15T07:21:01;7.73;;;6.93;;
15712;SDS011;7957;51.608;6.916;2022-11-15T07:23:29;7.60;;;6.97;;
15712;SDS011;7957;51.608;6.916;2022-11-15T07:25:56;7.27;;;6.67;;
15712;SDS011;7957;51.608;6.916;2022-11-15T07:28:24;7.70;;;6.90;;
15712;SDS011;7957;51.608;6.916;2022-11-15T07:30:51;7.60;;;6.90;;
15712;SDS011;7957;51.608;6.916;2022-11-15T07:33:17;7.30;;;6.60;;
15712;SDS011;7957;51.608;6.916;2022-11-15T07:35:44;7.20;;;6.50;;
15712;SDS011;7957;51.608;6.916;2022-11-15T07:38:15;8.17;;;6.97;;
15712;SDS011;7957;51.608;6.916;2022-11-15T07:40:44;6.83;;;6.23;;
15712;SDS011;7957;51.608;6.916;2022-11-15T07:43:12;6.33;;;5.73;;
15712;SDS011;7957;51.608;6.916;2022-11-15T07:45:40;7.63;;;6.83;;
15712;SDS011;7957;51.608;6.916;2022-11-15T07:48:08;6.67;;;5.70;;
15712;SDS011;7957;51.608;6.916;2022-11-15T07:50:35;6.27;;;5.67;;
15712;SDS011;7957;51.608;6.916;2022-11-15T07:53:01;6.47;;;5.93;;
15712;SDS011;7957;51.608;6.916;2022-11-15T07:55:30;6.67;;;6.07;;
15712;SDS011;7957;51.608;6.916;2022-11-15T07:58:00;6.67;;;6.07;;
15712;SDS011;7957;51.608;6.916;2022-11-15T08:00:28;6.23;;;5.63;;
15712;SDS011;7957;51.608;6.916;2022-11-15T08:03:00;6.27;;;5.70;;
15712;SDS011;7957;51.608;6.916;2022-11-15T08:05:28;5.90;;;5.40;;
15712;SDS011;7957;51.608;6.916;2022-11-15T08:07:55;5.70;;;5.17;;
15712;SDS011;7957;51.608;6.916;2022-11-15T08:10:23;5.57;;;5.00;;
15712;SDS011;7957;51.608;6.916;2022-11-15T08:12:57;5.80;;;4.90;;
15712;SDS011;7957;51.608;6.916;2022-11-15T08:15:25;5.30;;;4.80;;
15712;SDS011;7957;51.608;6.916;2022-11-15T08:17:55;5.23;;;4.73;;
15712;SDS011;7957;51.608;6.916;2022-11-15T08:20:22;4.37;;;4.07;;
15712;SDS011;7957;51.608;6.916;2022-11-15T08:22:50;4.27;;;3.90;;
15712;SDS011;7957;51.608;6.916;2022-11-15T08:25:17;4.40;;;4.00;;
15712;SDS011;7957;51.608;6.916;2022-11-15T08:27:44;5.03;;;4.20;;
15712;SDS011;7957;51.608;6.916;2022-11-15T08:30:12;4.37;;;3.97;;
15712;SDS011;7957;51.608;6.916;2022-11-15T08:32:41;4.23;;;3.80;;
15712;SDS011;7957;51.608;6.916;2022-11-15T08:35:08;4.80;;;3.70;;
15712;SDS011;7957;51.608;6.916;2022-11-15T08:37:35;6.50;;;3.57;;
15712;SDS011;7957;51.608;6.916;2022-11-15T08:40:02;3.60;;;2.90;;
15712;SDS011;7957;51.608;6.916;2022-11-15T08:42:29;4.20;;;2.70;;
15712;SDS011;7957;51.608;6.916;2022-11-15T08:44:56;3.00;;;2.80;;
15712;SDS011;7957;51.608;6.916;2022-11-15T08:47:25;4.40;;;3.60;;
15712;SDS011;7957;51.608;6.916;2022-11-15T08:49:52;4.90;;;2.70;;
15712;SDS011;7957;51.608;6.916;2022-11-15T08:52:19;2.93;;;2.30;;
15712;SDS011;7957;51.608;6.916;2022-11-15T08:54:46;3.17;;;2.23;;
15712;SDS011;7957;51.608;6.916;2022-11-15T08:57:13;2.63;;;2.33;;
15712;SDS011;7957;51.608;6.916;2022-11-15T08:59:40;4.13;;;2.20;;
15712;SDS011;7957;51.608;6.916;2022-11-15T09:02:10;3.73;;;2.43;;
15712;SDS011;7957;51.608;6.916;2022-11-15T09:04:40;2.73;;;2.20;;
15712;SDS011;7957;51.608;6.916;2022-11-15T09:07:07;2.30;;;2.07;;
15712;SDS011;7957;51.608;6.916;2022-11-15T09:09:34;3.97;;;2.20;;
15712;SDS011;7957;51.608;6.916;2022-11-15T09:12:01;2.47;;;2.27;;
15712;SDS011;7957;51.608;6.916;2022-11-15T09:14:29;3.03;;;1.90;;
15712;SDS011;7957;51.608;6.916;2022-11-15T09:16:55;4.60;;;2.00;;
15712;SDS011;7957;51.608;6.916;2022-11-15T09:19:23;2.03;;;1.90;;
15712;SDS011;7957;51.608;6.916;2022-11-15T09:21:51;2.90;;;2.13;;
15712;SDS011;7957;51.608;6.916;2022-11-15T09:24:19;2.77;;;2.07;;
15712;SDS011;7957;51.608;6.916;2022-11-15T09:26:46;2.57;;;2.23;;
15712;SDS011;7957;51.608;6.916;2022-11-15T09:29:13;3.00;;;2.40;;
15712;SDS011;7957;51.608;6.916;2022-11-15T09:31:40;3.23;;;2.33;;
15712;SDS011;7957;51.608;6.916;2022-11-15T09:34:07;3.63;;;2.50;;
15712;SDS011;7957;51.608;6.916;2022-11-15T09:36:33;3.20;;;2.30;;
15712;SDS011;7957;51.608;6.916;2022-11-15T09:39:02;4.27;;;2.50;;
15712;SDS011;7957;51.608;6.916;2022-11-15T09:41:33;5.50;;;2.67;;
15712;SDS011;7957;51.608;6.916;2022-11-15T09:44:19;5.33;;;2.87;;
15712;SDS011;7957;51.608;6.916;2022-11-15T09:47:10;5.03;;;2.70;;
15712;SDS011;7957;51.608;6.916;2022-11-15T09:49:51;4.47;;;3.20;;
15712;SDS011;7957;51.608;6.916;2022-11-15T09:52:19;3.30;;;2.90;;
15712;SDS011;7957;51.608;6.916;2022-11-15T09:54:49;3.60;;;2.90;;
15712;SDS011;7957;51.608;6.916;2022-11-15T09:57:18;4.87;;;3.20;;
15712;SDS011;7957;51.608;6.916;2022-11-15T10:02:43;5.83;;;2.93;;
15712;SDS011;7957;51.608;6.916;2022-11-15T10:05:20;3.23;;;2.93;;
15712;SDS011;7957;51.608;6.916;2022-11-15T10:07:50;4.60;;;3.27;;
15712;SDS011;7957;51.608;6.916;2022-11-15T10:10:24;4.33;;;3.20;;
15712;SDS011;7957;51.608;6.916;2022-11-15T10:12:55;3.20;;;2.60;;
15712;SDS011;7957;51.608;6.916;2022-11-15T10:15:23;3.87;;;2.80;;
15712;SDS011;7957;51.608;6.916;2022-11-15T10:20:42;3.90;;;2.83;;
15712;SDS011;7957;51.608;6.916;2022-11-15T10:23:14;4.30;;;3.10;;
15712;SDS011;7957;51.608;6.916;2022-11-15T10:25:44;4.63;;;2.80;;
15712;SDS011;7957;51.608;6.916;2022-11-15T10:28:14;3.60;;;3.17;;
15712;SDS011;7957;51.608;6.916;2022-11-15T10:30:43;4.23;;;3.20;;
15712;SDS011;7957;51.608;6.916;2022-11-15T10:33:23;5.30;;;3.03;;
15712;SDS011;7957;51.608;6.916;2022-11-15T10:38:51;3.47;;;2.80;;
15712;SDS011;7957;51.608;6.916;2022-11-15T10:41:22;3.40;;;2.60;;
15712;SDS011;7957;51.608;6.916;2022-11-15T10:46:45;3.20;;;2.57;;
15712;SDS011;7957;51.608;6.916;2022-11-15T10:49:16;3.87;;;2.80;;
15712;SDS011;7957;51.608;6.916;2022-11-15T10:51:45;4.60;;;2.43;;
15712;SDS011;7957;51.608;6.916;2022-11-15T10:54:18;4.17;;;2.60;;
15712;SDS011;7957;51.608;6.916;2022-11-15T10:56:52;2.93;;;2.40;;
15712;SDS011;7957;51.608;6.916;2022-11-15T10:59:22;2.47;;;2.20;;
15712;SDS011;7957;51.608;6.916;2022-11-15T11:01:52;2.57;;;2.37;;
15712;SDS011;7957;51.608;6.916;2022-11-15T11:04:19;3.57;;;2.40;;
15712;SDS011;7957;51.608;6.916;2022-11-15T11:06:47;5.57;;;2.50;;
15712;SDS011;7957;51.608;6.916;2022-11-15T11:09:22;2.93;;;2.13;;
15712;SDS011;7957;51.608;6.916;2022-11-15T11:11:55;2.50;;;2.30;;
15712;SDS011;7957;51.608;6.916;2022-11-15T11:14:23;2.60;;;2.40;;
15712;SDS011;7957;51.608;6.916;2022-11-15T11:16:52;6.20;;;2.17;;
15712;SDS011;7957;51.608;6.916;2022-11-15T11:19:35;5.20;;;2.43;;
15712;SDS011;7957;51.608;6.916;2022-11-15T11:22:14;4.00;;;2.30;;
15712;SDS011;7957;51.608;6.916;2022-11-15T11:24:47;3.23;;;2.27;;
15712;SDS011;7957;51.608;6.916;2022-11-15T11:27:41;4.60;;;2.37;;
15712;SDS011;7957;51.608;6.916;2022-11-15T11:30:20;4.43;;;2.23;;
15712;SDS011;7957;51.608;6.916;2022-11-15T11:32:56;4.80;;;2.20;;
15712;SDS011;7957;51.608;6.916;2022-11-15T11:35:32;5.77;;;2.20;;
15712;SDS011;7957;51.608;6.916;2022-11-15T11:38:10;3.40;;;2.07;;
15712;SDS011;7957;51.608;6.916;2022-11-15T11:40:51;5.97;;;2.20;;
15712;SDS011;7957;51.608;6.916;2022-11-15T11:43:30;3.80;;;2.30;;
15712;SDS011;7957;51.608;6.916;2022-11-15T11:46:14;4.00;;;2.10;;
15712;SDS011;7957;51.608;6.916;2022-11-15T11:48:55;2.97;;;1.90;;
15712;SDS011;7957;51.608;6.916;2022-11-15T11:51:41;2.60;;;1.97;;
15712;SDS011;7957;51.608;6.916;2022-11-15T11:54:12;2.20;;;1.70;;
15712;SDS011;7957;51.608;6.916;2022-11-15T11:56:45;2.20;;;1.70;;
15712;SDS011;7957;51.608;6.916;2022-11-15T11:59:16;3.23;;;1.67;;
15712;SDS011;7957;51.608;6.916;2022-11-15T12:01:46;3.53;;;2.03;;
15712;SDS011;7957;51.608;6.916;2022-11-15T12:04:14;6.37;;;1.87;;
15712;SDS011;7957;51.608;6.916;2022-11-15T12:06:47;4.53;;;2.10;;
15712;SDS011;7957;51.608;6.916;2022-11-15T12:09:17;2.43;;;1.60;;
15712;SDS011;7957;51.608;6.916;2022-11-15T12:11:54;2.57;;;1.90;;
15712;SDS011;7957;51.608;6.916;2022-11-15T12:14:29;2.33;;;1.80;;
15712;SDS011;7957;51.608;6.916;2022-11-15T12:16:59;4.10;;;1.73;;
15712;SDS011;7957;51.608;6.916;2022-11-15T12:19:26;3.23;;;2.10;;
15712;SDS011;7957;51.608;6.916;2022-11-15T12:21:56;2.73;;;1.70;;
15712;SDS011;7957;51.608;6.916;2022-11-15T12:24:28;2.10;;;1.53;;
15712;SDS011;7957;51.608;6.916;2022-11-15T12:27:01;2.80;;;1.77;;
15712;SDS011;7957;51.608;6.916;2022-11-15T12:29:33;2.67;;;1.80;;
15712;SDS011;7957;51.608;6.916;2022-11-15T12:32:04;2.90;;;1.73;;
15712;SDS011;7957;51.608;6.916;2022-11-15T12:34:43;3.57;;;1.60;;
15712;SDS011;7957;51.608;6.916;2022-11-15T12:40:17;3.03;;;1.50;;
15712;SDS011;7957;51.608;6.916;2022-11-15T12:43:02;2.50;;;1.60;;
15712;SDS011;7957;51.608;6.916;2022-11-15T12:45:57;2.47;;;1.50;;
15712;SDS011;7957;51.608;6.916;2022-11-15T12:57:31;1.87;;;1.60;;
15712;SDS011;7957;51.608;6.916;2022-11-15T13:00:16;2.20;;;1.30;;
15712;SDS011;7957;51.608;6.916;2022-11-15T13:03:28;2.37;;;1.37;;
15712;SDS011;7957;51.608;6.916;2022-11-15T13:05:59;3.53;;;1.57;;
15712;SDS011;7957;51.608;6.916;2022-11-15T13:08:39;2.23;;;1.60;;
15712;SDS011;7957;51.608;6.916;2022-11-15T13:17:12;2.03;;;1.27;;
15712;SDS011;7957;51.608;6.916;2022-11-15T13:19:58;2.27;;;1.53;;
15712;SDS011;7957;51.608;6.916;2022-11-15T13:22:32;2.23;;;1.40;;
15712;SDS011;7957;51.608;6.916;2022-11-15T13:25:23;6.67;;;1.60;;
15712;SDS011;7957;51.608;6.916;2022-11-15T13:28:10;3.37;;;1.60;;
15712;SDS011;7957;51.608;6.916;2022-11-15T13:30:50;2.53;;;1.43;;
15712;SDS011;7957;51.608;6.916;2022-11-15T13:33:21;3.60;;;1.50;;
15712;SDS011;7957;51.608;6.916;2022-11-15T13:35:52;3.10;;;1.60;;
15712;SDS011;7957;51.608;6.916;2022-11-15T13:38:25;2.30;;;1.43;;
15712;SDS011;7957;51.608;6.916;2022-11-15T13:40:53;3.03;;;1.47;;
15712;SDS011;7957;51.608;6.916;2022-11-15T13:43:26;3.13;;;1.60;;
15712;SDS011;7957;51.608;6.916;2022-11-15T13:46:04;4.93;;;1.97;;
15712;SDS011;7957;51.608;6.916;2022-11-15T13:48:32;4.13;;;1.77;;
15712;SDS011;7957;51.608;6.916;2022-11-15T13:51:01;2.70;;;1.53;;
15712;SDS011;7957;51.608;6.916;2022-11-15T13:53:30;2.30;;;1.47;;
15712;SDS011;7957;51.608;6.916;2022-11-15T13:55:58;6.80;;;2.00;;
15712;SDS011;7957;51.608;6.916;2022-11-15T13:58:25;6.40;;;1.93;;
15712;SDS011;7957;51.608;6.916;2022-11-15T14:00:58;6.20;;;1.90;;
15712;SDS011;7957;51.608;6.916;2022-11-15T14:03:27;13.90;;;2.10;;
15712;SDS011;7957;51.608;6.916;2022-11-15T14:06:04;5.20;;;1.60;;
15712;SDS011;7957;51.608;6.916;2022-11-15T14:08:32;10.80;;;2.03;;
15712;SDS011;7957;51.608;6.916;2022-11-15T14:11:07;15.37;;;2.57;;
15712;SDS011;7957;51.608;6.916;2022-11-15T14:13:38;5.80;;;2.00;;
15712;SDS011;7957;51.608;6.916;2022-11-15T14:16:12;5.40;;;2.33;;
15712;SDS011;7957;51.608;6.916;2022-11-15T14:18:42;12.43;;;1.93;;
15712;SDS011;7957;51.608;6.916;2022-11-15T14:21:12;5.17;;;1.93;;
15712;SDS011;7957;51.608;6.916;2022-11-15T14:23:39;7.80;;;2.43;;
15712;SDS011;7957;51.608;6.916;2022-11-15T14:26:10;70.73;;;64.70;;
15712;SDS011;7957;51.608;6.916;2022-11-15T14:28:52;61.53;;;55.30;;
15712;SDS011;7957;51.608;6.916;2022-11-15T14:31:19;18.87;;;14.87;;
15712;SDS011;7957;51.608;6.916;2022-11-15T14:33:47;8.30;;;3.40;;
15712;SDS011;7957;51.608;6.916;2022-11-15T14:36:16;17.83;;;3.03;;
15712;SDS011;7957;51.608;6.916;2022-11-15T14:38:44;5.87;;;1.63;;
15712;SDS011;7957;51.608;6.916;2022-11-15T14:41:17;5.37;;;2.00;;
15712;SDS011;7957;51.608;6.916;2022-11-15T14:43:46;9.73;;;1.80;;
15712;SDS011;7957;51.608;6.916;2022-11-15T14:46:13;3.03;;;1.90;;
15712;SDS011;7957;51.608;6.916;2022-11-15T14:48:40;5.77;;;1.87;;
15712;SDS011;7957;51.608;6.916;2022-11-15T14:51:11;5.17;;;1.73;;
15712;SDS011;7957;51.608;6.916;2022-11-15T14:53:42;5.23;;;1.87;;
15712;SDS011;7957;51.608;6.916;2022-11-15T14:56:10;3.83;;;1.57;;
15712;SDS011;7957;51.608;6.916;2022-11-15T14:58:37;3.60;;;1.80;;
15712;SDS011;7957;51.608;6.916;2022-11-15T15:01:09;8.10;;;1.93;;
15712;SDS011;7957;51.608;6.916;2022-11-15T15:03:38;4.53;;;1.80;;
15712;SDS011;7957;51.608;6.916;2022-11-15T15:06:05;3.57;;;1.70;;
15712;SDS011;7957;51.608;6.916;2022-11-15T15:08:34;7.13;;;2.10;;
15712;SDS011;7957;51.608;6.916;2022-11-15T15:11:03;4.80;;;2.00;;
15712;SDS011;7957;51.608;6.916;2022-11-15T15:13:36;3.17;;;1.77;;
15712;SDS011;7957;51.608;6.916;2022-11-15T15:16:03;3.53;;;1.80;;
15712;SDS011;7957;51.608;6.916;2022-11-15T15:18:30;7.90;;;2.00;;
15712;SDS011;7957;51.608;6.916;2022-11-15T15:20:58;4.47;;;1.87;;
15712;SDS011;7957;51.608;6.916;2022-11-15T15:23:28;7.13;;;2.00;;
15712;SDS011;7957;51.608;6.916;2022-11-15T15:25:56;5.00;;;2.20;;
15712;SDS011;7957;51.608;6.916;2022-11-15T15:28:24;5.67;;;2.10;;
15712;SDS011;7957;51.608;6.916;2022-11-15T15:30:52;3.60;;;1.77;;
15712;SDS011;7957;51.608;6.916;2022-11-15T15:33:19;4.40;;;2.20;;
15712;SDS011;7957;51.608;6.916;2022-11-15T15:35:46;4.70;;;2.53;;
15712;SDS011;7957;51.608;6.916;2022-11-15T15:38:13;5.53;;;2.53;;
15712;SDS011;7957;51.608;6.916;2022-11-15T15:40:40;10.87;;;2.43;;
15712;SDS011;7957;51.608;6.916;2022-11-15T15:43:07;5.97;;;2.70;;
15712;SDS011;7957;51.608;6.916;2022-11-15T15:45:36;4.20;;;2.60;;
15712;SDS011;7957;51.608;6.916;2022-11-15T15:48:04;3.87;;;2.50;;
15712;SDS011;7957;51.608;6.916;2022-11-15T15:50:32;3.93;;;2.80;;
15712;SDS011;7957;51.608;6.916;2022-11-15T15:53:00;4.63;;;2.87;;